createdAt,value
2017-04-09T00:00:02.899Z,0
2017-04-09T00:00:28.980Z,0
2017-04-09T00:00:55.086Z,0
2017-04-09T00:01:21.248Z,0
2017-04-09T00:01:47.360Z,0
2017-04-09T00:02:13.440Z,0
2017-04-09T00:02:39.651Z,0
2017-04-09T00:03:05.861Z,0
2017-04-09T00:03:31.987Z,0
2017-04-09T00:03:58.134Z,0
2017-04-09T00:04:24.239Z,0
2017-04-09T00:04:50.388Z,0
2017-04-09T00:05:16.491Z,0
2017-04-09T00:05:42.572Z,0
2017-04-09T00:06:08.677Z,0
2017-04-09T00:06:34.802Z,0
2017-04-09T00:07:00.883Z,0
2017-04-09T00:07:26.987Z,0
2017-04-09T00:07:53.167Z,0
2017-04-09T00:08:19.304Z,0
2017-04-09T00:08:45.405Z,0
2017-04-09T00:09:11.507Z,0
2017-04-09T00:09:37.638Z,0
2017-04-09T00:10:03.746Z,0
2017-04-09T00:10:29.852Z,0
2017-04-09T00:10:55.932Z,0
2017-04-09T00:11:22.036Z,0
2017-04-09T00:11:48.115Z,0
2017-04-09T00:12:14.198Z,0
2017-04-09T00:12:40.280Z,0
2017-04-09T00:13:06.383Z,0
2017-04-09T00:13:32.462Z,0
2017-04-09T00:13:58.571Z,0
2017-04-09T00:14:24.674Z,0
2017-04-09T00:14:50.776Z,0
2017-04-09T00:15:16.959Z,0
2017-04-09T00:15:43.040Z,0
2017-04-09T00:16:09.122Z,0
2017-04-09T00:16:35.224Z,0
2017-04-09T00:17:01.305Z,0
2017-04-09T00:17:27.408Z,0
2017-04-09T00:17:53.489Z,0
2017-04-09T00:18:19.568Z,0
2017-04-09T00:18:45.650Z,0
2017-04-09T00:19:11.752Z,0
2017-04-09T00:19:37.833Z,0
2017-04-09T00:20:03.911Z,0
2017-04-09T00:20:29.993Z,0
2017-04-09T00:20:56.069Z,0
2017-04-09T00:21:22.153Z,0
2017-04-09T00:21:48.256Z,0
2017-04-09T00:22:14.335Z,0
2017-04-09T00:22:40.419Z,0
2017-04-09T00:23:06.500Z,0
2017-04-09T00:23:32.627Z,0
2017-04-09T00:23:58.699Z,0
2017-04-09T00:24:24.746Z,0
2017-04-09T00:24:50.825Z,0
2017-04-09T00:25:16.909Z,0
2017-04-09T00:25:43.031Z,0
2017-04-09T00:26:09.223Z,0
2017-04-09T00:26:35.266Z,0
2017-04-09T00:27:01.369Z,0
2017-04-09T00:27:27.485Z,0
2017-04-09T00:27:53.591Z,0
2017-04-09T00:28:19.697Z,0
2017-04-09T00:28:45.776Z,0
2017-04-09T00:29:11.877Z,0
2017-04-09T00:29:37.957Z,0
2017-04-09T00:30:04.037Z,0
2017-04-09T00:30:30.144Z,0
2017-04-09T00:30:56.451Z,0
2017-04-09T00:31:22.530Z,0
2017-04-09T00:31:48.630Z,0
2017-04-09T00:32:14.733Z,0
2017-04-09T00:32:40.842Z,0
2017-04-09T00:33:06.913Z,0
2017-04-09T00:33:33.051Z,0
2017-04-09T00:33:59.230Z,0
2017-04-09T00:34:25.358Z,0
2017-04-09T00:34:51.473Z,0
2017-04-09T00:35:17.584Z,0
2017-04-09T00:35:43.753Z,0
2017-04-09T00:36:09.880Z,0
2017-04-09T00:36:35.984Z,0
2017-04-09T00:37:02.064Z,0
2017-04-09T00:37:28.167Z,0
2017-04-09T00:37:54.336Z,0
2017-04-09T00:38:20.465Z,0
2017-04-09T00:38:46.573Z,0
2017-04-09T00:39:12.677Z,0
2017-04-09T00:39:38.779Z,0
2017-04-09T00:40:04.952Z,0
2017-04-09T00:40:31.043Z,0
2017-04-09T00:40:57.148Z,0
2017-04-09T00:41:23.250Z,0
2017-04-09T00:41:49.329Z,0
2017-04-09T00:42:15.471Z,0
2017-04-09T00:42:41.586Z,0
2017-04-09T00:43:07.726Z,0
2017-04-09T00:43:33.820Z,0
2017-04-09T00:43:59.903Z,0
2017-04-09T00:44:25.971Z,0
2017-04-09T00:44:52.101Z,0
2017-04-09T00:45:18.183Z,0
2017-04-09T00:45:44.288Z,0
2017-04-09T00:46:10.394Z,0
2017-04-09T00:46:36.507Z,0
2017-04-09T00:47:02.614Z,0
2017-04-09T00:47:28.730Z,0
2017-04-09T00:47:54.843Z,0
2017-04-09T00:48:20.928Z,0
2017-04-09T00:48:47.009Z,0
2017-04-09T00:49:13.089Z,0
2017-04-09T00:49:39.425Z,0
2017-04-09T00:50:05.524Z,0
2017-04-09T00:50:31.591Z,0
2017-04-09T00:50:57.675Z,0
2017-04-09T00:51:23.813Z,0
2017-04-09T00:51:49.968Z,0
2017-04-09T00:52:16.099Z,0
2017-04-09T00:52:42.223Z,0
2017-04-09T00:53:08.339Z,0
2017-04-09T00:53:34.447Z,0
2017-04-09T00:54:00.563Z,0
2017-04-09T00:54:26.699Z,0
2017-04-09T00:54:52.806Z,0
2017-04-09T00:55:18.930Z,0
2017-04-09T00:55:45.010Z,0
2017-04-09T00:56:11.125Z,0
2017-04-09T00:56:37.249Z,0
2017-04-09T00:57:03.387Z,0
2017-04-09T00:57:29.484Z,0
2017-04-09T00:57:55.569Z,0
2017-04-09T00:58:21.720Z,0
2017-04-09T00:58:47.805Z,0
2017-04-09T00:59:13.922Z,0
2017-04-09T00:59:40.049Z,0
2017-04-09T01:00:06.150Z,0
2017-04-09T01:00:32.271Z,0
2017-04-09T01:00:58.457Z,0
2017-04-09T01:01:24.576Z,0
2017-04-09T01:01:50.658Z,0
2017-04-09T01:02:16.740Z,0
2017-04-09T01:02:42.820Z,0
2017-04-09T01:03:08.899Z,0
2017-04-09T01:03:34.977Z,0
2017-04-09T01:04:01.056Z,0
2017-04-09T01:04:27.138Z,0
2017-04-09T01:04:53.241Z,0
2017-04-09T01:05:19.368Z,0
2017-04-09T01:05:45.449Z,0
2017-04-09T01:06:11.530Z,0
2017-04-09T01:06:37.634Z,0
2017-04-09T01:07:03.738Z,0
2017-04-09T01:07:29.821Z,0
2017-04-09T01:07:55.925Z,0
2017-04-09T01:08:22.006Z,0
2017-04-09T01:08:48.114Z,0
2017-04-09T01:09:14.237Z,0
2017-04-09T01:09:40.340Z,0
2017-04-09T01:10:06.441Z,0
2017-04-09T01:10:32.521Z,0
2017-04-09T01:10:58.603Z,0
2017-04-09T01:11:24.709Z,0
2017-04-09T01:11:50.792Z,0
2017-04-09T01:12:16.872Z,0
2017-04-09T01:12:42.995Z,0
2017-04-09T01:13:09.098Z,0
2017-04-09T01:13:35.250Z,0
2017-04-09T01:14:01.374Z,0
2017-04-09T01:14:27.477Z,0
2017-04-09T01:14:53.581Z,0
2017-04-09T01:15:19.683Z,0
2017-04-09T01:15:45.813Z,0
2017-04-09T01:16:11.918Z,0
2017-04-09T01:16:37.998Z,0
2017-04-09T01:17:04.079Z,0
2017-04-09T01:17:30.161Z,0
2017-04-09T01:17:56.243Z,0
2017-04-09T01:18:22.369Z,0
2017-04-09T01:18:48.471Z,0
2017-04-09T01:19:14.599Z,0
2017-04-09T01:19:40.750Z,0
2017-04-09T01:20:06.829Z,0
2017-04-09T01:20:32.907Z,0
2017-04-09T01:20:58.988Z,0
2017-04-09T01:21:25.065Z,0
2017-04-09T01:21:51.145Z,0
2017-04-09T01:22:17.226Z,0
2017-04-09T01:22:43.309Z,0
2017-04-09T01:23:09.389Z,0
2017-04-09T01:23:35.469Z,0
2017-04-09T01:24:01.574Z,0
2017-04-09T01:24:27.675Z,0
2017-04-09T01:24:53.756Z,0
2017-04-09T01:25:19.834Z,0
2017-04-09T01:25:45.936Z,0
2017-04-09T01:26:12.016Z,0
2017-04-09T01:26:38.095Z,0
2017-04-09T01:27:04.178Z,0
2017-04-09T01:27:30.282Z,0
2017-04-09T01:27:56.365Z,0
2017-04-09T01:28:22.490Z,0
2017-04-09T01:28:48.569Z,0
2017-04-09T01:29:14.651Z,0
2017-04-09T01:29:40.729Z,0
2017-04-09T01:30:06.809Z,0
2017-04-09T01:30:32.890Z,0
2017-04-09T01:30:58.970Z,0
2017-04-09T01:31:25.071Z,0
2017-04-09T01:31:51.151Z,0
2017-04-09T01:32:17.234Z,0
2017-04-09T01:32:43.314Z,0
2017-04-09T01:33:09.395Z,0
2017-04-09T01:33:35.476Z,0
2017-04-09T01:34:01.579Z,0
2017-04-09T01:34:27.662Z,0
2017-04-09T01:34:53.741Z,0
2017-04-09T01:35:19.841Z,0
2017-04-09T01:35:45.925Z,0
2017-04-09T01:36:12.004Z,0
2017-04-09T01:36:38.084Z,0
2017-04-09T01:37:04.164Z,0
2017-04-09T01:37:30.243Z,0
2017-04-09T01:37:56.322Z,0
2017-04-09T01:38:22.401Z,0
2017-04-09T01:38:48.503Z,0
2017-04-09T01:39:14.584Z,0
2017-04-09T01:39:40.663Z,0
2017-04-09T01:40:06.745Z,0
2017-04-09T01:40:32.823Z,0
2017-04-09T01:40:58.903Z,0
2017-04-09T01:41:24.982Z,0
2017-04-09T01:41:51.062Z,0
2017-04-09T01:42:17.165Z,0
2017-04-09T01:42:43.244Z,0
2017-04-09T01:43:09.368Z,0
2017-04-09T01:43:35.471Z,0
2017-04-09T01:44:01.592Z,0
2017-04-09T01:44:27.699Z,0
2017-04-09T01:44:53.779Z,0
2017-04-09T01:45:19.879Z,0
2017-04-09T01:45:45.960Z,0
2017-04-09T01:46:12.065Z,0
2017-04-09T01:46:38.166Z,0
2017-04-09T01:47:04.246Z,0
2017-04-09T01:47:30.329Z,0
2017-04-09T01:47:56.458Z,0
2017-04-09T01:48:22.562Z,0
2017-04-09T01:48:48.690Z,0
2017-04-09T01:49:14.813Z,0
2017-04-09T01:49:40.937Z,0
2017-04-09T01:50:07.019Z,0
2017-04-09T01:50:33.123Z,0
2017-04-09T01:50:59.208Z,0
2017-04-09T01:51:25.306Z,0
2017-04-09T01:51:51.387Z,0
2017-04-09T01:52:17.490Z,0
2017-04-09T01:52:43.595Z,0
2017-04-09T01:53:09.676Z,0
2017-04-09T01:53:35.802Z,0
2017-04-09T01:54:01.925Z,0
2017-04-09T01:54:28.004Z,0
2017-04-09T01:54:54.106Z,0
2017-04-09T01:55:20.234Z,0
2017-04-09T01:55:46.335Z,0
2017-04-09T01:56:12.442Z,0
2017-04-09T01:56:38.547Z,0
2017-04-09T01:57:04.628Z,0
2017-04-09T01:57:30.707Z,0
2017-04-09T01:57:56.832Z,0
2017-04-09T01:58:22.939Z,0
2017-04-09T01:58:49.067Z,0
2017-04-09T01:59:15.148Z,0
2017-04-09T01:59:41.250Z,0
2017-04-09T02:00:07.329Z,0
2017-04-09T02:00:33.432Z,0
2017-04-09T02:00:59.536Z,0
2017-04-09T02:01:25.641Z,0
2017-04-09T02:01:51.821Z,0
2017-04-09T02:02:17.926Z,0
2017-04-09T02:02:44.005Z,0
2017-04-09T02:03:10.131Z,0
2017-04-09T02:03:36.256Z,0
2017-04-09T02:04:02.336Z,0
2017-04-09T02:04:28.440Z,0
2017-04-09T02:04:54.521Z,0
2017-04-09T02:05:20.607Z,0
2017-04-09T02:05:46.681Z,0
2017-04-09T02:06:12.761Z,0
2017-04-09T02:06:38.840Z,0
2017-04-09T02:07:04.944Z,0
2017-04-09T02:07:31.048Z,0
2017-04-09T02:07:57.170Z,0
2017-04-09T02:08:23.250Z,0
2017-04-09T02:08:49.357Z,0
2017-04-09T02:09:15.457Z,0
2017-04-09T02:09:41.538Z,0
2017-04-09T02:10:07.639Z,0
2017-04-09T02:10:33.719Z,0
2017-04-09T02:10:59.849Z,0
2017-04-09T02:11:25.900Z,0
2017-04-09T02:11:51.981Z,0
2017-04-09T02:12:18.105Z,0
2017-04-09T02:12:44.188Z,0
2017-04-09T02:13:10.356Z,0
2017-04-09T02:13:36.461Z,0
2017-04-09T02:14:02.564Z,0
2017-04-09T02:14:28.692Z,0
2017-04-09T02:14:54.771Z,0
2017-04-09T02:15:20.850Z,0
2017-04-09T02:15:46.931Z,0
2017-04-09T02:16:13.009Z,0
2017-04-09T02:16:39.137Z,0
2017-04-09T02:17:05.242Z,0
2017-04-09T02:17:31.323Z,0
2017-04-09T02:17:57.426Z,0
2017-04-09T02:18:23.527Z,0
2017-04-09T02:18:49.631Z,0
2017-04-09T02:19:15.735Z,0
2017-04-09T02:19:41.817Z,0
2017-04-09T02:20:07.942Z,0
2017-04-09T02:20:34.021Z,0
2017-04-09T02:21:00.099Z,0
2017-04-09T02:21:26.203Z,0
2017-04-09T02:21:52.284Z,0
2017-04-09T02:22:18.408Z,0
2017-04-09T02:22:44.532Z,0
2017-04-09T02:23:10.611Z,0
2017-04-09T02:23:36.689Z,0
2017-04-09T02:24:02.768Z,0
2017-04-09T02:24:28.848Z,0
2017-04-09T02:24:54.929Z,0
2017-04-09T02:25:21.033Z,0
2017-04-09T02:25:47.112Z,0
2017-04-09T02:26:13.191Z,0
2017-04-09T02:26:39.270Z,0
2017-04-09T02:27:05.376Z,0
2017-04-09T02:27:31.456Z,0
2017-04-09T02:27:57.536Z,0
2017-04-09T02:28:23.617Z,0
2017-04-09T02:28:49.720Z,0
2017-04-09T02:29:15.801Z,0
2017-04-09T02:29:41.881Z,0
2017-04-09T02:30:07.961Z,0
2017-04-09T02:30:34.076Z,0
2017-04-09T02:31:00.188Z,0
2017-04-09T02:31:26.290Z,0
2017-04-09T02:31:52.477Z,0
2017-04-09T02:32:18.542Z,0
2017-04-09T02:32:44.642Z,0
2017-04-09T02:33:10.765Z,0
2017-04-09T02:33:36.889Z,0
2017-04-09T02:34:02.991Z,0
2017-04-09T02:34:29.094Z,0
2017-04-09T02:34:55.176Z,0
2017-04-09T02:35:21.258Z,0
2017-04-09T02:35:47.362Z,0
2017-04-09T02:36:13.467Z,0
2017-04-09T02:36:39.571Z,0
2017-04-09T02:37:05.672Z,0
2017-04-09T02:37:31.752Z,0
2017-04-09T02:37:57.859Z,0
2017-04-09T02:38:23.963Z,0
2017-04-09T02:38:50.069Z,0
2017-04-09T02:39:16.172Z,0
2017-04-09T02:39:42.252Z,0
2017-04-09T02:40:08.354Z,0
2017-04-09T02:40:34.432Z,0
2017-04-09T02:41:00.512Z,0
2017-04-09T02:41:26.589Z,0
2017-04-09T02:41:52.667Z,0
2017-04-09T02:42:18.770Z,0
2017-04-09T02:42:44.850Z,0
2017-04-09T02:43:10.929Z,0
2017-04-09T02:43:37.034Z,0
2017-04-09T02:44:03.208Z,0
2017-04-09T02:44:29.285Z,0
2017-04-09T02:44:55.389Z,0
2017-04-09T02:45:21.496Z,0
2017-04-09T02:45:47.576Z,0
2017-04-09T02:46:13.682Z,0
2017-04-09T02:46:39.760Z,0
2017-04-09T02:47:05.847Z,0
2017-04-09T02:47:31.946Z,0
2017-04-09T02:47:58.069Z,0
2017-04-09T02:48:24.240Z,0
2017-04-09T02:48:50.364Z,0
2017-04-09T02:49:16.445Z,0
2017-04-09T02:49:42.570Z,0
2017-04-09T02:50:08.652Z,0
2017-04-09T02:50:34.729Z,0
2017-04-09T02:51:00.843Z,0
2017-04-09T02:51:26.891Z,0
2017-04-09T02:51:52.991Z,0
2017-04-09T02:52:19.071Z,0
2017-04-09T02:52:45.155Z,0
2017-04-09T02:53:11.235Z,0
2017-04-09T02:53:37.338Z,0
2017-04-09T02:54:03.418Z,0
2017-04-09T02:54:29.498Z,0
2017-04-09T02:54:55.598Z,0
2017-04-09T02:55:21.679Z,0
2017-04-09T02:55:47.760Z,0
2017-04-09T02:56:13.860Z,0
2017-04-09T02:56:39.940Z,0
2017-04-09T02:57:06.019Z,0
2017-04-09T02:57:32.106Z,0
2017-04-09T02:57:58.178Z,0
2017-04-09T02:58:24.864Z,0
2017-04-09T02:58:50.968Z,0
2017-04-09T03:05:58.504Z,0
2017-04-09T03:06:24.608Z,0
2017-04-09T03:06:50.716Z,0
2017-04-09T03:07:16.796Z,0
2017-04-09T03:07:42.899Z,0
2017-04-09T03:08:09.004Z,0
2017-04-09T03:08:35.110Z,0
2017-04-09T03:09:01.363Z,0
2017-04-09T03:09:27.489Z,0
2017-04-09T03:09:53.595Z,0
2017-04-09T03:10:19.801Z,0
2017-04-09T03:10:45.905Z,0
2017-04-09T03:11:11.987Z,0
2017-04-09T03:11:38.092Z,0
2017-04-09T03:12:04.173Z,0
2017-04-09T03:12:30.257Z,0
2017-04-09T03:12:56.362Z,0
2017-04-09T03:13:22.488Z,0
2017-04-09T03:13:48.617Z,0
2017-04-09T03:14:14.745Z,0
2017-04-09T03:14:40.851Z,0
2017-04-09T03:15:07.027Z,0
2017-04-09T03:15:33.111Z,0
2017-04-09T03:15:59.339Z,0
2017-04-09T03:16:25.421Z,0
2017-04-09T03:16:51.529Z,0
2017-04-09T03:17:17.781Z,0
2017-04-09T03:17:43.885Z,0
2017-04-09T03:18:09.964Z,0
2017-04-09T03:18:36.071Z,0
2017-04-09T03:19:02.177Z,0
2017-04-09T03:19:28.330Z,0
2017-04-09T03:19:54.435Z,0
2017-04-09T03:20:20.518Z,0
2017-04-09T03:20:46.599Z,0
2017-04-09T03:21:12.681Z,0
2017-04-09T03:21:38.785Z,0
2017-04-09T03:22:04.889Z,0
2017-04-09T03:22:30.971Z,0
2017-04-09T03:22:57.078Z,0
2017-04-09T03:23:23.207Z,0
2017-04-09T03:23:49.316Z,0
2017-04-09T03:24:15.438Z,0
2017-04-09T03:24:41.563Z,0
2017-04-09T03:25:07.668Z,0
2017-04-09T03:25:33.772Z,0
2017-04-09T03:26:00.251Z,0
2017-04-09T03:26:26.337Z,0
2017-04-09T03:26:52.413Z,0
2017-04-09T03:27:18.494Z,0
2017-04-09T03:27:44.649Z,0
2017-04-09T03:28:10.776Z,0
2017-04-09T03:28:36.902Z,0
2017-04-09T03:29:03.051Z,0
2017-04-09T03:29:29.155Z,0
2017-04-09T03:29:55.280Z,0
2017-04-09T03:30:21.382Z,0
2017-04-09T03:30:47.465Z,0
2017-04-09T03:31:13.543Z,0
2017-04-09T03:31:39.622Z,0
2017-04-09T03:32:05.705Z,0
2017-04-09T03:32:31.788Z,0
2017-04-09T03:32:57.913Z,0
2017-04-09T03:33:24.015Z,0
2017-04-09T03:33:50.098Z,0
2017-04-09T03:34:16.269Z,0
2017-04-09T03:34:42.396Z,0
2017-04-09T03:35:08.523Z,0
2017-04-09T03:35:34.627Z,0
2017-04-09T03:36:00.753Z,0
2017-04-09T03:36:26.832Z,0
2017-04-09T03:36:52.938Z,0
2017-04-09T03:37:19.044Z,0
2017-04-09T03:37:45.171Z,0
2017-04-09T03:38:11.278Z,0
2017-04-09T03:38:37.362Z,0
2017-04-09T03:39:03.490Z,0
2017-04-09T03:39:29.572Z,0
2017-04-09T03:39:55.751Z,0
2017-04-09T03:40:21.830Z,0
2017-04-09T03:40:47.909Z,0
2017-04-09T03:41:13.987Z,0
2017-04-09T03:41:40.092Z,0
2017-04-09T03:42:06.218Z,0
2017-04-09T03:42:32.322Z,0
2017-04-09T03:42:58.403Z,0
2017-04-09T03:43:24.509Z,0
2017-04-09T03:43:50.614Z,0
2017-04-09T03:44:16.696Z,0
2017-04-09T03:44:42.798Z,0
2017-04-09T03:45:08.880Z,0
2017-04-09T03:45:34.984Z,0
2017-04-09T03:46:01.064Z,0
2017-04-09T03:46:27.169Z,0
2017-04-09T03:46:53.251Z,0
2017-04-09T03:47:19.332Z,0
2017-04-09T03:47:45.437Z,0
2017-04-09T03:48:11.541Z,0
2017-04-09T03:48:37.623Z,0
2017-04-09T03:49:03.779Z,0
2017-04-09T03:49:29.905Z,0
2017-04-09T03:49:56.010Z,0
2017-04-09T03:50:22.114Z,0
2017-04-09T03:50:48.194Z,0
2017-04-09T03:51:14.273Z,0
2017-04-09T03:51:40.355Z,0
2017-04-09T03:52:06.459Z,0
2017-04-09T03:52:32.540Z,0
2017-04-09T03:52:58.626Z,0
2017-04-09T03:53:24.726Z,0
2017-04-09T03:53:50.806Z,0
2017-04-09T03:54:16.888Z,0
2017-04-09T03:54:42.992Z,0
2017-04-09T03:55:09.098Z,0
2017-04-09T03:55:35.179Z,0
2017-04-09T03:56:01.260Z,0
2017-04-09T03:56:27.692Z,0
2017-04-09T03:56:53.773Z,0
2017-04-09T03:57:19.900Z,0
2017-04-09T03:57:45.981Z,0
2017-04-09T03:58:12.109Z,0
2017-04-09T03:58:38.188Z,0
2017-04-09T03:59:04.295Z,0
2017-04-09T03:59:30.400Z,0
2017-04-09T03:59:56.480Z,0
2017-04-09T04:00:22.583Z,0
2017-04-09T04:00:48.685Z,0
2017-04-09T04:01:14.765Z,0
2017-04-09T04:01:40.891Z,0
2017-04-09T04:02:06.995Z,0
2017-04-09T04:02:33.078Z,0
2017-04-09T04:02:59.227Z,0
2017-04-09T04:03:25.333Z,0
2017-04-09T04:03:51.482Z,0
2017-04-09T04:04:17.565Z,0
2017-04-09T04:04:43.647Z,0
2017-04-09T04:05:09.748Z,0
2017-04-09T04:05:35.827Z,0
2017-04-09T04:06:01.931Z,0
2017-04-09T04:06:28.032Z,0
2017-04-09T04:06:54.135Z,0
2017-04-09T04:07:20.216Z,0
2017-04-09T04:07:46.299Z,0
2017-04-09T04:08:12.401Z,0
2017-04-09T04:08:38.511Z,0
2017-04-09T04:09:04.655Z,0
2017-04-09T04:09:30.811Z,0
2017-04-09T04:09:56.915Z,4
2017-04-09T04:10:22.998Z,4
2017-04-09T04:10:49.080Z,4
2017-04-09T04:11:15.161Z,4
2017-04-09T04:11:41.243Z,4
2017-04-09T04:12:07.322Z,0
2017-04-09T04:12:33.424Z,0
2017-04-09T04:12:59.505Z,0
2017-04-09T04:13:25.588Z,4
2017-04-09T04:13:51.672Z,4
2017-04-09T04:14:17.754Z,4
2017-04-09T04:14:43.834Z,4
2017-04-09T04:15:09.912Z,0
2017-04-09T04:15:35.991Z,4
2017-04-09T04:16:02.074Z,4
2017-04-09T04:16:28.226Z,4
2017-04-09T04:16:54.329Z,8
2017-04-09T04:17:20.434Z,4
2017-04-09T04:17:46.514Z,8
2017-04-09T04:18:12.594Z,8
2017-04-09T04:18:38.699Z,4
2017-04-09T04:19:04.802Z,8
2017-04-09T04:19:30.882Z,12
2017-04-09T04:19:56.988Z,8
2017-04-09T04:20:23.094Z,12
2017-04-09T04:20:49.176Z,12
2017-04-09T04:21:15.301Z,12
2017-04-09T04:21:41.482Z,12
2017-04-09T04:22:07.564Z,12
2017-04-09T04:22:33.690Z,16
2017-04-09T04:22:59.794Z,16
2017-04-09T04:23:25.874Z,16
2017-04-09T04:23:51.956Z,16
2017-04-09T04:24:18.083Z,16
2017-04-09T04:24:44.186Z,20
2017-04-09T04:25:10.265Z,20
2017-04-09T04:25:36.347Z,24
2017-04-09T04:26:02.430Z,24
2017-04-09T04:26:28.883Z,28
2017-04-09T04:26:54.968Z,32
2017-04-09T04:27:21.068Z,32
2017-04-09T04:27:47.174Z,36
2017-04-09T04:28:13.280Z,36
2017-04-09T04:28:39.382Z,36
2017-04-09T04:29:05.466Z,44
2017-04-09T04:29:31.594Z,44
2017-04-09T04:29:57.697Z,48
2017-04-09T04:30:23.787Z,52
2017-04-09T04:30:49.862Z,56
2017-04-09T04:31:15.943Z,60
2017-04-09T04:31:42.023Z,64
2017-04-09T04:32:08.106Z,64
2017-04-09T04:32:34.184Z,72
2017-04-09T04:33:00.288Z,76
2017-04-09T04:33:26.392Z,80
2017-04-09T04:33:52.470Z,88
2017-04-09T04:34:18.550Z,92
2017-04-09T04:34:44.633Z,96
2017-04-09T04:35:10.713Z,100
2017-04-09T04:35:36.817Z,108
2017-04-09T04:36:02.895Z,116
2017-04-09T04:36:28.974Z,124
2017-04-09T04:36:55.054Z,132
2017-04-09T04:37:21.137Z,136
2017-04-09T04:37:47.222Z,144
2017-04-09T04:38:13.302Z,152
2017-04-09T04:38:39.406Z,160
2017-04-09T04:39:05.511Z,172
2017-04-09T04:39:31.594Z,176
2017-04-09T04:39:57.676Z,188
2017-04-09T04:40:23.779Z,200
2017-04-09T04:40:49.861Z,208
2017-04-09T04:41:15.942Z,220
2017-04-09T04:41:42.068Z,228
2017-04-09T04:42:08.193Z,240
2017-04-09T04:42:34.276Z,252
2017-04-09T04:43:00.403Z,264
2017-04-09T04:43:26.485Z,280
2017-04-09T04:43:52.613Z,292
2017-04-09T04:44:18.739Z,304
2017-04-09T04:44:44.844Z,316
2017-04-09T04:45:10.926Z,328
2017-04-09T04:45:37.007Z,344
2017-04-09T04:46:03.090Z,360
2017-04-09T04:46:29.215Z,372
2017-04-09T04:46:55.346Z,388
2017-04-09T04:47:21.471Z,400
2017-04-09T04:47:47.600Z,420
2017-04-09T04:48:13.704Z,432
2017-04-09T04:48:39.806Z,452
2017-04-09T04:49:05.891Z,468
2017-04-09T04:49:32.040Z,484
2017-04-09T04:49:58.246Z,504
2017-04-09T04:50:24.350Z,520
2017-04-09T04:50:50.449Z,540
2017-04-09T04:51:16.582Z,556
2017-04-09T04:51:42.687Z,576
2017-04-09T04:52:08.774Z,592
2017-04-09T04:52:34.877Z,612
2017-04-09T04:53:00.999Z,636
2017-04-09T04:53:27.082Z,656
2017-04-09T04:53:53.216Z,676
2017-04-09T04:54:19.314Z,696
2017-04-09T04:54:45.419Z,716
2017-04-09T04:55:11.524Z,736
2017-04-09T04:55:37.606Z,760
2017-04-09T04:56:03.688Z,788
2017-04-09T04:56:29.791Z,812
2017-04-09T04:56:55.871Z,844
2017-04-09T04:57:21.955Z,868
2017-04-09T04:57:48.060Z,896
2017-04-09T04:58:14.164Z,924
2017-04-09T04:58:40.267Z,952
2017-04-09T04:59:06.370Z,976
2017-04-09T04:59:32.476Z,1004
2017-04-09T04:59:58.606Z,1032
2017-04-09T05:00:24.687Z,1064
2017-04-09T05:00:50.772Z,1092
2017-04-09T05:01:16.854Z,1124
2017-04-09T05:01:42.935Z,1152
2017-04-09T05:02:09.016Z,1184
2017-04-09T05:02:35.122Z,1220
2017-04-09T05:03:01.204Z,1248
2017-04-09T05:03:27.308Z,1280
2017-04-09T05:03:53.388Z,1312
2017-04-09T05:04:19.469Z,1344
2017-04-09T05:04:45.548Z,1376
2017-04-09T05:05:11.633Z,1408
2017-04-09T05:05:37.765Z,1440
2017-04-09T05:06:03.844Z,1472
2017-04-09T05:06:29.925Z,1508
2017-04-09T05:06:56.006Z,1540
2017-04-09T05:07:22.236Z,1576
2017-04-09T05:07:48.318Z,1608
2017-04-09T05:08:14.443Z,1644
2017-04-09T05:08:40.574Z,1680
2017-04-09T05:09:06.656Z,1716
2017-04-09T05:09:32.739Z,1756
2017-04-09T05:09:58.820Z,1796
2017-04-09T05:10:24.946Z,1832
2017-04-09T05:10:51.049Z,1872
2017-04-09T05:11:17.127Z,1916
2017-04-09T05:11:43.206Z,1956
2017-04-09T05:12:09.310Z,1992
2017-04-09T05:12:35.440Z,2036
2017-04-09T05:13:01.544Z,2080
2017-04-09T05:13:27.646Z,2128
2017-04-09T05:13:53.771Z,2172
2017-04-09T05:14:19.898Z,2220
2017-04-09T05:14:45.980Z,2264
2017-04-09T05:15:12.106Z,2308
2017-04-09T05:15:38.214Z,2348
2017-04-09T05:16:04.320Z,2392
2017-04-09T05:16:30.403Z,2432
2017-04-09T05:16:56.508Z,2476
2017-04-09T05:17:22.590Z,2520
2017-04-09T05:17:48.696Z,2564
2017-04-09T05:18:14.845Z,2608
2017-04-09T05:18:41.027Z,2652
2017-04-09T05:19:07.152Z,2700
2017-04-09T05:19:33.256Z,2744
2017-04-09T05:19:59.337Z,2796
2017-04-09T05:20:25.419Z,2844
2017-04-09T05:20:51.502Z,2896
2017-04-09T05:21:17.605Z,2948
2017-04-09T05:21:43.684Z,3004
2017-04-09T05:22:09.768Z,3056
2017-04-09T05:22:35.871Z,3112
2017-04-09T05:23:01.954Z,3160
2017-04-09T05:23:28.056Z,3208
2017-04-09T05:23:54.237Z,3256
2017-04-09T05:24:20.341Z,3304
2017-04-09T05:24:46.574Z,3356
2017-04-09T05:25:12.653Z,3408
2017-04-09T05:25:38.735Z,3468
2017-04-09T05:26:04.818Z,3524
2017-04-09T05:26:30.899Z,3580
2017-04-09T05:26:57.001Z,3636
2017-04-09T05:27:23.083Z,3688
2017-04-09T05:27:49.163Z,3740
2017-04-09T05:28:15.245Z,3792
2017-04-09T05:28:41.376Z,3844
2017-04-09T05:29:07.455Z,3900
2017-04-09T05:29:33.558Z,3956
2017-04-09T05:29:59.640Z,4016
2017-04-09T05:30:25.721Z,4072
2017-04-09T05:30:51.805Z,4132
2017-04-09T05:31:17.895Z,4188
2017-04-09T05:31:43.999Z,4244
2017-04-09T05:32:10.096Z,4300
2017-04-09T05:32:36.179Z,4356
2017-04-09T05:33:02.265Z,4412
2017-04-09T05:33:28.345Z,4472
2017-04-09T05:33:54.426Z,4532
2017-04-09T05:34:20.505Z,4596
2017-04-09T05:34:46.587Z,4664
2017-04-09T05:35:12.669Z,4732
2017-04-09T05:35:38.772Z,4792
2017-04-09T05:36:04.856Z,4852
2017-04-09T05:36:30.985Z,4912
2017-04-09T05:36:57.089Z,4972
2017-04-09T05:37:23.170Z,5028
2017-04-09T05:37:49.328Z,5088
2017-04-09T05:38:15.410Z,5160
2017-04-09T05:38:41.514Z,5220
2017-04-09T05:39:07.597Z,5292
2017-04-09T05:39:33.676Z,5368
2017-04-09T05:39:59.780Z,5440
2017-04-09T05:40:25.862Z,5504
2017-04-09T05:40:51.965Z,5552
2017-04-09T05:41:18.069Z,5596
2017-04-09T05:41:44.171Z,5636
2017-04-09T05:42:10.274Z,5672
2017-04-09T05:42:36.354Z,5712
2017-04-09T05:43:02.584Z,5768
2017-04-09T05:43:28.665Z,5820
2017-04-09T05:43:54.745Z,5880
2017-04-09T05:44:20.828Z,5936
2017-04-09T05:44:46.908Z,5992
2017-04-09T05:45:12.987Z,6048
2017-04-09T05:45:39.070Z,6104
2017-04-09T05:46:05.153Z,6160
2017-04-09T05:46:31.236Z,6216
2017-04-09T05:46:57.343Z,6276
2017-04-09T05:47:23.423Z,6332
2017-04-09T05:47:49.503Z,6388
2017-04-09T05:48:15.587Z,6448
2017-04-09T05:48:41.668Z,6500
2017-04-09T05:49:07.751Z,6544
2017-04-09T05:49:33.833Z,6600
2017-04-09T05:49:59.940Z,6652
2017-04-09T05:50:26.023Z,6708
2017-04-09T05:50:52.230Z,6768
2017-04-09T05:51:18.335Z,6836
2017-04-09T05:51:44.439Z,6900
2017-04-09T05:52:10.575Z,6972
2017-04-09T05:52:36.675Z,7036
2017-04-09T05:53:02.779Z,7108
2017-04-09T05:53:28.884Z,7172
2017-04-09T05:53:54.968Z,7236
2017-04-09T05:54:21.053Z,7292
2017-04-09T05:54:47.157Z,7344
2017-04-09T05:55:13.263Z,7396
2017-04-09T05:55:39.343Z,7448
2017-04-09T05:56:05.423Z,7500
2017-04-09T05:56:31.530Z,7552
2017-04-09T05:56:57.633Z,7604
2017-04-09T05:57:23.715Z,7660
2017-04-09T05:57:49.820Z,7708
2017-04-09T05:58:15.903Z,7748
2017-04-09T05:58:42.027Z,7788
2017-04-09T05:59:08.107Z,7848
2017-04-09T05:59:34.188Z,7920
2017-04-09T06:00:00.268Z,8004
2017-04-09T06:00:26.351Z,8096
2017-04-09T06:00:52.456Z,8228
2017-04-09T06:01:18.535Z,8400
2017-04-09T06:01:44.616Z,8632
2017-04-09T06:02:10.733Z,8868
2017-04-09T06:02:36.780Z,9088
2017-04-09T06:03:02.907Z,9276
2017-04-09T06:03:29.031Z,9360
2017-04-09T06:03:55.135Z,9316
2017-04-09T06:04:21.265Z,9228
2017-04-09T06:04:47.370Z,9224
2017-04-09T06:05:13.473Z,9280
2017-04-09T06:05:39.557Z,9340
2017-04-09T06:06:05.636Z,9404
2017-04-09T06:06:31.742Z,9484
2017-04-09T06:06:57.848Z,9544
2017-04-09T06:07:23.949Z,9624
2017-04-09T06:07:50.098Z,9752
2017-04-09T06:08:16.227Z,9924
2017-04-09T06:08:42.353Z,10104
2017-04-09T06:09:08.484Z,10284
2017-04-09T06:09:34.588Z,10468
2017-04-09T06:10:00.670Z,10584
2017-04-09T06:10:26.776Z,10624
2017-04-09T06:10:53.015Z,10604
2017-04-09T06:11:19.063Z,10572
2017-04-09T06:11:45.168Z,10560
2017-04-09T06:12:11.351Z,10576
2017-04-09T06:12:37.457Z,10600
2017-04-09T06:13:03.588Z,10620
2017-04-09T06:13:29.663Z,10680
2017-04-09T06:13:55.770Z,10704
2017-04-09T06:14:21.929Z,10720
2017-04-09T06:14:48.005Z,10728
2017-04-09T06:15:14.087Z,10748
2017-04-09T06:15:40.171Z,10768
2017-04-09T06:16:06.299Z,10784
2017-04-09T06:16:32.381Z,10792
2017-04-09T06:16:58.462Z,10788
2017-04-09T06:17:24.541Z,10760
2017-04-09T06:17:50.624Z,10724
2017-04-09T06:18:16.706Z,10696
2017-04-09T06:18:42.788Z,10712
2017-04-09T06:19:08.915Z,10764
2017-04-09T06:19:35.021Z,10832
2017-04-09T06:20:01.112Z,10904
2017-04-09T06:20:27.219Z,10968